Airfield :







YOU CAN JOIN US ON...

 
LOGIN :

Register | Disclaimer

   EN    FR    IT 

 









Legend :    VFR   Marginal VFR   IFR   Intensive IFR   Very Intensive IFR
Visi :
Ceiling :
>= 8 km
>= 3000ft
5 to 8 km
1000 to 3000 ft
1500m to 5 km
500 to 1000 ft
800 to 1500m
200 to 500 ft
< 800m
< 200 ft
Symbols :   Thunderstorms  Fog  Heavy snow  Heavy precipitations  Wind > 20 kt






- Airport Elevation : 266 ft
- IATA code : MHT


KMHT - Manchester

CURRENT METAR :
  • 010153Z 15021G26KT 5SM RA BKN012 BKN020 OVC040 17/14 A2952 RMK AO2 PK WND 14028/0102 SLP010 P0010 T01670139

EXPIRED METARs :
  • 010053Z 14021G30KT 6SM -RA BR BKN012 OVC025 16/13 A2952 RMK AO2 PK WND 15034/0014 SLP010 P0003 T01560133
  • 302353Z 15023G34KT 6SM -RA BKN015 OVC030 16/13 A2953 RMK AO2 PK WND 18035/2255 SLP015 P0006 6//// T01560128 10161 20083 56034
  • 302317Z 16020G33KT 3SM -RA BKN015 OVC030 16/13 A2955 RMK AO2 PK WND 18035/2255 SFC VIS 8 P0001 T01610128

TAF KMHT
Valid from the 01 at 00:00 until the 02 at 00:00 UTC


010029Z 0100/0124 16020G33KT 6SM -RA BR OVC015 WS020/18055KT
FM010700 16008KT 4SM BR OVC006
FM011100 15005KT 6SM BR SCT004 BKN010
FM011500 17009KT P6SM BKN020
FM012000 18008KT P6SM FEW250
KZBW FIR / North America



MET'MAP, your aeronautical weather chart ! - Copyright ORBIFLY December 2007 - Disclaimer

ORBIFLY MET'MAP TEAM :

Programming & Development : Alexandra Zaïnal
Concept & original design : Baudouin d'Aumeries
Assistance for programming : Marc-Olivier Méhu
Technical & hardware support : Manuel Goepfert

Contact : metmap@orbifly.com




SOURCES & CREDITS :

   NOAA